sensor_id;sensor_type;location;lat;lon;timestamp;P1;durP1;ratioP1;P2;durP2;ratioP2
48034;SDS011;33812;46.480;6.834;2022-09-27T00:02:51;3.42;;;1.05;;
48034;SDS011;33812;46.480;6.834;2022-09-27T00:06:52;1.70;;;0.98;;
48034;SDS011;33812;46.480;6.834;2022-09-27T00:10:58;5.80;;;0.75;;
48034;SDS011;33812;46.480;6.834;2022-09-27T00:15:01;2.22;;;0.80;;
48034;SDS011;33812;46.480;6.834;2022-09-27T00:19:05;1.63;;;0.68;;
48034;SDS011;33812;46.480;6.834;2022-09-27T00:23:08;1.67;;;0.50;;
48034;SDS011;33812;46.480;6.834;2022-09-27T00:27:11;1.48;;;0.60;;
48034;SDS011;33812;46.480;6.834;2022-09-27T00:31:15;1.25;;;0.60;;
48034;SDS011;33812;46.480;6.834;2022-09-27T00:35:20;2.47;;;0.68;;
48034;SDS011;33812;46.480;6.834;2022-09-27T00:39:22;2.53;;;0.73;;
48034;SDS011;33812;46.480;6.834;2022-09-27T00:43:25;2.30;;;0.52;;
48034;SDS011;33812;46.480;6.834;2022-09-27T00:47:29;3.70;;;0.65;;
48034;SDS011;33812;46.480;6.834;2022-09-27T00:51:35;0.90;;;0.47;;
48034;SDS011;33812;46.480;6.834;2022-09-27T00:55:40;0.40;;;0.40;;
48034;SDS011;33812;46.480;6.834;2022-09-27T00:59:47;1.35;;;0.60;;
48034;SDS011;33812;46.480;6.834;2022-09-27T01:03:51;1.10;;;0.52;;
48034;SDS011;33812;46.480;6.834;2022-09-27T01:07:57;2.47;;;0.60;;
48034;SDS011;33812;46.480;6.834;2022-09-27T01:12:01;1.02;;;0.52;;
48034;SDS011;33812;46.480;6.834;2022-09-27T01:16:16;2.33;;;0.73;;
48034;SDS011;33812;46.480;6.834;2022-09-27T01:20:39;3.97;;;1.23;;
48034;SDS011;33812;46.480;6.834;2022-09-27T01:24:58;1.77;;;0.55;;
48034;SDS011;33812;46.480;6.834;2022-09-27T01:29:08;2.47;;;1.10;;
48034;SDS011;33812;46.480;6.834;2022-09-27T01:33:34;5.25;;;1.50;;
48034;SDS011;33812;46.480;6.834;2022-09-27T01:37:44;6.50;;;1.50;;
48034;SDS011;33812;46.480;6.834;2022-09-27T01:41:52;2.95;;;1.00;;
48034;SDS011;33812;46.480;6.834;2022-09-27T01:46:03;5.15;;;1.92;;
48034;SDS011;33812;46.480;6.834;2022-09-27T01:50:10;4.13;;;1.20;;
48034;SDS011;33812;46.480;6.834;2022-09-27T01:54:18;2.45;;;1.10;;
48034;SDS011;33812;46.480;6.834;2022-09-27T01:58:25;3.53;;;1.15;;
48034;SDS011;33812;46.480;6.834;2022-09-27T02:02:32;2.72;;;1.00;;
48034;SDS011;33812;46.480;6.834;2022-09-27T02:06:39;2.53;;;0.82;;
48034;SDS011;33812;46.480;6.834;2022-09-27T02:10:43;1.90;;;0.70;;
48034;SDS011;33812;46.480;6.834;2022-09-27T02:14:48;2.15;;;0.73;;
48034;SDS011;33812;46.480;6.834;2022-09-27T02:18:56;2.17;;;0.70;;
48034;SDS011;33812;46.480;6.834;2022-09-27T02:23:12;7.05;;;0.70;;
48034;SDS011;33812;46.480;6.834;2022-09-27T02:27:20;4.70;;;1.35;;
48034;SDS011;33812;46.480;6.834;2022-09-27T02:31:26;2.00;;;0.73;;
48034;SDS011;33812;46.480;6.834;2022-09-27T02:35:28;2.97;;;1.30;;
48034;SDS011;33812;46.480;6.834;2022-09-27T02:39:34;3.05;;;0.90;;
48034;SDS011;33812;46.480;6.834;2022-09-27T02:43:36;5.47;;;0.80;;
48034;SDS011;33812;46.480;6.834;2022-09-27T02:47:42;2.63;;;1.02;;
48034;SDS011;33812;46.480;6.834;2022-09-27T02:51:58;2.05;;;0.85;;
48034;SDS011;33812;46.480;6.834;2022-09-27T02:56:11;1.13;;;0.52;;
48034;SDS011;33812;46.480;6.834;2022-09-27T03:00:19;2.45;;;0.90;;
48034;SDS011;33812;46.480;6.834;2022-09-27T03:04:26;2.45;;;0.63;;
48034;SDS011;33812;46.480;6.834;2022-09-27T03:08:35;2.15;;;0.68;;
48034;SDS011;33812;46.480;6.834;2022-09-27T03:12:39;1.95;;;0.77;;
48034;SDS011;33812;46.480;6.834;2022-09-27T03:16:41;2.28;;;0.63;;
48034;SDS011;33812;46.480;6.834;2022-09-27T03:20:43;1.40;;;0.55;;
48034;SDS011;33812;46.480;6.834;2022-09-27T03:24:44;2.10;;;0.63;;
48034;SDS011;33812;46.480;6.834;2022-09-27T03:28:48;3.53;;;0.75;;
48034;SDS011;33812;46.480;6.834;2022-09-27T03:32:49;0.70;;;0.45;;
48034;SDS011;33812;46.480;6.834;2022-09-27T03:36:51;1.30;;;0.60;;
48034;SDS011;33812;46.480;6.834;2022-09-27T03:40:53;1.80;;;0.70;;
48034;SDS011;33812;46.480;6.834;2022-09-27T03:44:56;2.25;;;0.60;;
48034;SDS011;33812;46.480;6.834;2022-09-27T03:48:57;2.33;;;0.47;;
48034;SDS011;33812;46.480;6.834;2022-09-27T03:52:59;2.60;;;0.60;;
48034;SDS011;33812;46.480;6.834;2022-09-27T03:57:01;1.83;;;0.57;;
48034;SDS011;33812;46.480;6.834;2022-09-27T04:01:05;1.95;;;0.60;;
48034;SDS011;33812;46.480;6.834;2022-09-27T04:05:07;4.53;;;0.60;;
48034;SDS011;33812;46.480;6.834;2022-09-27T04:09:08;11.90;;;0.55;;
48034;SDS011;33812;46.480;6.834;2022-09-27T04:13:10;1.88;;;0.75;;
48034;SDS011;33812;46.480;6.834;2022-09-27T04:17:13;4.32;;;0.73;;
48034;SDS011;33812;46.480;6.834;2022-09-27T04:21:15;3.13;;;0.55;;
48034;SDS011;33812;46.480;6.834;2022-09-27T04:25:17;4.45;;;0.70;;
48034;SDS011;33812;46.480;6.834;2022-09-27T04:29:18;8.32;;;0.70;;
48034;SDS011;33812;46.480;6.834;2022-09-27T04:33:22;0.88;;;0.68;;
48034;SDS011;33812;46.480;6.834;2022-09-27T04:37:24;9.02;;;0.45;;
48034;SDS011;33812;46.480;6.834;2022-09-27T04:41:27;4.18;;;0.40;;
48034;SDS011;33812;46.480;6.834;2022-09-27T04:45:29;3.50;;;0.45;;
48034;SDS011;33812;46.480;6.834;2022-09-27T04:49:32;3.22;;;0.40;;
48034;SDS011;33812;46.480;6.834;2022-09-27T04:53:34;0.88;;;0.40;;
48034;SDS011;33812;46.480;6.834;2022-09-27T04:57:36;2.50;;;0.43;;
48034;SDS011;33812;46.480;6.834;2022-09-27T05:01:39;2.30;;;0.40;;
48034;SDS011;33812;46.480;6.834;2022-09-27T05:05:42;1.27;;;0.43;;
48034;SDS011;33812;46.480;6.834;2022-09-27T05:09:44;2.05;;;0.63;;
48034;SDS011;33812;46.480;6.834;2022-09-27T05:13:45;2.03;;;0.32;;
48034;SDS011;33812;46.480;6.834;2022-09-27T05:17:49;2.70;;;0.60;;
48034;SDS011;33812;46.480;6.834;2022-09-27T05:21:52;3.55;;;0.75;;
48034;SDS011;33812;46.480;6.834;2022-09-27T05:25:54;3.92;;;0.57;;
48034;SDS011;33812;46.480;6.834;2022-09-27T05:29:56;5.53;;;0.88;;
48034;SDS011;33812;46.480;6.834;2022-09-27T05:33:59;2.60;;;0.70;;
48034;SDS011;33812;46.480;6.834;2022-09-27T05:38:02;5.57;;;0.50;;
48034;SDS011;33812;46.480;6.834;2022-09-27T05:42:05;3.72;;;0.73;;
48034;SDS011;33812;46.480;6.834;2022-09-27T05:46:09;2.97;;;0.93;;
48034;SDS011;33812;46.480;6.834;2022-09-27T05:50:11;4.25;;;0.88;;
48034;SDS011;33812;46.480;6.834;2022-09-27T05:54:14;5.55;;;0.73;;
48034;SDS011;33812;46.480;6.834;2022-09-27T05:58:15;17.38;;;1.13;;
48034;SDS011;33812;46.480;6.834;2022-09-27T06:02:17;9.45;;;0.77;;
48034;SDS011;33812;46.480;6.834;2022-09-27T06:06:19;5.40;;;0.80;;
48034;SDS011;33812;46.480;6.834;2022-09-27T06:10:23;7.80;;;0.70;;
48034;SDS011;33812;46.480;6.834;2022-09-27T06:14:25;4.32;;;0.50;;
48034;SDS011;33812;46.480;6.834;2022-09-27T06:18:27;5.72;;;0.70;;
48034;SDS011;33812;46.480;6.834;2022-09-27T06:22:29;2.58;;;0.80;;
48034;SDS011;33812;46.480;6.834;2022-09-27T06:26:32;8.13;;;0.77;;
48034;SDS011;33812;46.480;6.834;2022-09-27T06:30:36;5.15;;;0.60;;
48034;SDS011;33812;46.480;6.834;2022-09-27T06:34:40;6.55;;;0.90;;
48034;SDS011;33812;46.480;6.834;2022-09-27T06:38:42;10.60;;;0.73;;
48034;SDS011;33812;46.480;6.834;2022-09-27T06:42:47;6.93;;;0.60;;
48034;SDS011;33812;46.480;6.834;2022-09-27T06:46:49;3.20;;;0.73;;
48034;SDS011;33812;46.480;6.834;2022-09-27T06:50:52;6.85;;;1.02;;
48034;SDS011;33812;46.480;6.834;2022-09-27T06:54:57;6.65;;;0.80;;
48034;SDS011;33812;46.480;6.834;2022-09-27T06:59:00;10.98;;;0.57;;
48034;SDS011;33812;46.480;6.834;2022-09-27T07:03:19;7.05;;;1.02;;
48034;SDS011;33812;46.480;6.834;2022-09-27T07:07:23;10.43;;;0.50;;
48034;SDS011;33812;46.480;6.834;2022-09-27T07:11:24;2.88;;;0.47;;
48034;SDS011;33812;46.480;6.834;2022-09-27T07:15:27;2.00;;;0.50;;
48034;SDS011;33812;46.480;6.834;2022-09-27T07:19:29;5.22;;;0.80;;
48034;SDS011;33812;46.480;6.834;2022-09-27T07:23:31;13.77;;;0.68;;
48034;SDS011;33812;46.480;6.834;2022-09-27T07:27:33;9.77;;;0.60;;
48034;SDS011;33812;46.480;6.834;2022-09-27T07:31:36;8.70;;;0.80;;
48034;SDS011;33812;46.480;6.834;2022-09-27T07:35:38;3.40;;;0.60;;
48034;SDS011;33812;46.480;6.834;2022-09-27T07:39:41;22.38;;;1.75;;
48034;SDS011;33812;46.480;6.834;2022-09-27T07:43:42;6.18;;;0.70;;
48034;SDS011;33812;46.480;6.834;2022-09-27T07:47:46;5.10;;;0.57;;
48034;SDS011;33812;46.480;6.834;2022-09-27T07:51:47;9.27;;;0.70;;
48034;SDS011;33812;46.480;6.834;2022-09-27T07:55:50;8.20;;;0.68;;
48034;SDS011;33812;46.480;6.834;2022-09-27T07:59:53;6.57;;;0.60;;
48034;SDS011;33812;46.480;6.834;2022-09-27T08:03:56;1.73;;;0.47;;
48034;SDS011;33812;46.480;6.834;2022-09-27T08:07:58;4.25;;;0.60;;
48034;SDS011;33812;46.480;6.834;2022-09-27T08:12:00;6.65;;;1.67;;
48034;SDS011;33812;46.480;6.834;2022-09-27T08:16:03;3.13;;;0.80;;
48034;SDS011;33812;46.480;6.834;2022-09-27T08:20:07;1.50;;;0.40;;
48034;SDS011;33812;46.480;6.834;2022-09-27T08:24:09;5.00;;;0.40;;
48034;SDS011;33812;46.480;6.834;2022-09-27T08:28:11;2.55;;;0.60;;
48034;SDS011;33812;46.480;6.834;2022-09-27T08:32:14;3.78;;;0.40;;
48034;SDS011;33812;46.480;6.834;2022-09-27T08:36:22;4.32;;;0.40;;
48034;SDS011;33812;46.480;6.834;2022-09-27T08:40:26;1.42;;;0.40;;
48034;SDS011;33812;46.480;6.834;2022-09-27T08:44:40;0.70;;;0.40;;
48034;SDS011;33812;46.480;6.834;2022-09-27T08:48:51;4.95;;;0.40;;
48034;SDS011;33812;46.480;6.834;2022-09-27T08:53:03;0.30;;;0.30;;
48034;SDS011;33812;46.480;6.834;2022-09-27T08:57:13;0.80;;;0.30;;
48034;SDS011;33812;46.480;6.834;2022-09-27T09:01:17;1.58;;;0.30;;
48034;SDS011;33812;46.480;6.834;2022-09-27T09:05:22;3.20;;;0.40;;
48034;SDS011;33812;46.480;6.834;2022-09-27T09:09:31;1.92;;;0.38;;
48034;SDS011;33812;46.480;6.834;2022-09-27T09:18:16;6.00;;;0.50;;
48034;SDS011;33812;46.480;6.834;2022-09-27T09:22:31;3.50;;;0.85;;
48034;SDS011;33812;46.480;6.834;2022-09-27T09:26:44;8.82;;;0.45;;
48034;SDS011;33812;46.480;6.834;2022-09-27T09:30:53;7.80;;;0.50;;
48034;SDS011;33812;46.480;6.834;2022-09-27T09:35:05;5.93;;;0.60;;
48034;SDS011;33812;46.480;6.834;2022-09-27T09:39:13;3.97;;;0.77;;
48034;SDS011;33812;46.480;6.834;2022-09-27T09:43:20;2.65;;;0.68;;
48034;SDS011;33812;46.480;6.834;2022-09-27T09:47:29;5.90;;;1.30;;
48034;SDS011;33812;46.480;6.834;2022-09-27T09:51:39;8.82;;;0.68;;
48034;SDS011;33812;46.480;6.834;2022-09-27T09:55:45;3.60;;;0.50;;
48034;SDS011;33812;46.480;6.834;2022-09-27T09:59:54;2.58;;;0.43;;
48034;SDS011;33812;46.480;6.834;2022-09-27T10:04:01;4.88;;;0.50;;
48034;SDS011;33812;46.480;6.834;2022-09-27T10:08:04;1.15;;;0.20;;
48034;SDS011;33812;46.480;6.834;2022-09-27T10:12:13;0.57;;;0.40;;
48034;SDS011;33812;46.480;6.834;2022-09-27T10:16:17;5.38;;;0.65;;
48034;SDS011;33812;46.480;6.834;2022-09-27T10:24:51;1.40;;;0.40;;
48034;SDS011;33812;46.480;6.834;2022-09-27T10:28:55;1.77;;;0.55;;
48034;SDS011;33812;46.480;6.834;2022-09-27T10:32:59;2.30;;;0.40;;
48034;SDS011;33812;46.480;6.834;2022-09-27T10:37:06;1.42;;;0.90;;
48034;SDS011;33812;46.480;6.834;2022-09-27T10:41:21;9.15;;;3.05;;
48034;SDS011;33812;46.480;6.834;2022-09-27T10:45:26;21.38;;;9.15;;
48034;SDS011;33812;46.480;6.834;2022-09-27T10:49:32;24.30;;;9.40;;
48034;SDS011;33812;46.480;6.834;2022-09-27T10:53:37;16.05;;;5.32;;
48034;SDS011;33812;46.480;6.834;2022-09-27T10:57:47;12.48;;;4.15;;
48034;SDS011;33812;46.480;6.834;2022-09-27T11:05:54;13.68;;;3.20;;
48034;SDS011;33812;46.480;6.834;2022-09-27T11:09:58;6.15;;;2.65;;
48034;SDS011;33812;46.480;6.834;2022-09-27T11:14:03;6.38;;;2.60;;
48034;SDS011;33812;46.480;6.834;2022-09-27T11:18:08;5.80;;;2.15;;
48034;SDS011;33812;46.480;6.834;2022-09-27T11:22:25;5.97;;;1.60;;
48034;SDS011;33812;46.480;6.834;2022-09-27T11:26:58;22.42;;;2.72;;
48034;SDS011;33812;46.480;6.834;2022-09-27T11:31:11;5.50;;;1.85;;
48034;SDS011;33812;46.480;6.834;2022-09-27T11:35:29;6.97;;;1.47;;
48034;SDS011;33812;46.480;6.834;2022-09-27T11:39:46;18.33;;;1.73;;
48034;SDS011;33812;46.480;6.834;2022-09-27T11:44:04;3.25;;;1.63;;
48034;SDS011;33812;46.480;6.834;2022-09-27T11:48:36;8.85;;;1.05;;
48034;SDS011;33812;46.480;6.834;2022-09-27T11:52:53;13.85;;;1.60;;
48034;SDS011;33812;46.480;6.834;2022-09-27T11:57:11;5.35;;;1.20;;
48034;SDS011;33812;46.480;6.834;2022-09-27T12:01:23;5.00;;;1.23;;
48034;SDS011;33812;46.480;6.834;2022-09-27T12:05:35;7.65;;;1.55;;
48034;SDS011;33812;46.480;6.834;2022-09-27T12:09:46;3.95;;;0.90;;
48034;SDS011;33812;46.480;6.834;2022-09-27T12:13:54;3.33;;;1.10;;
48034;SDS011;33812;46.480;6.834;2022-09-27T12:18:01;3.00;;;0.90;;
48034;SDS011;33812;46.480;6.834;2022-09-27T12:22:10;3.38;;;1.27;;
48034;SDS011;33812;46.480;6.834;2022-09-27T12:26:16;8.50;;;1.00;;
48034;SDS011;33812;46.480;6.834;2022-09-27T12:30:22;6.13;;;0.90;;
48034;SDS011;33812;46.480;6.834;2022-09-27T12:34:24;4.38;;;1.27;;
48034;SDS011;33812;46.480;6.834;2022-09-27T12:38:36;5.15;;;1.23;;
48034;SDS011;33812;46.480;6.834;2022-09-27T12:42:42;3.53;;;0.90;;
48034;SDS011;33812;46.480;6.834;2022-09-27T12:46:52;3.92;;;0.80;;
48034;SDS011;33812;46.480;6.834;2022-09-27T12:51:02;2.63;;;0.75;;
48034;SDS011;33812;46.480;6.834;2022-09-27T12:59:43;2.63;;;1.10;;
48034;SDS011;33812;46.480;6.834;2022-09-27T13:03:57;4.78;;;0.80;;
48034;SDS011;33812;46.480;6.834;2022-09-27T13:08:21;1.27;;;0.57;;
48034;SDS011;33812;46.480;6.834;2022-09-27T13:12:36;1.83;;;0.68;;
48034;SDS011;33812;46.480;6.834;2022-09-27T13:16:41;1.00;;;0.50;;
48034;SDS011;33812;46.480;6.834;2022-09-27T13:20:45;1.05;;;0.38;;
48034;SDS011;33812;46.480;6.834;2022-09-27T13:24:48;0.45;;;0.43;;
48034;SDS011;33812;46.480;6.834;2022-09-27T13:28:57;3.13;;;0.60;;
48034;SDS011;33812;46.480;6.834;2022-09-27T13:37:46;2.50;;;0.45;;
48034;SDS011;33812;46.480;6.834;2022-09-27T13:46:13;1.13;;;0.30;;
48034;SDS011;33812;46.480;6.834;2022-09-27T13:50:19;1.23;;;0.50;;
48034;SDS011;33812;46.480;6.834;2022-09-27T13:54:36;0.85;;;0.45;;
48034;SDS011;33812;46.480;6.834;2022-09-27T13:58:49;1.77;;;0.60;;
48034;SDS011;33812;46.480;6.834;2022-09-27T14:02:58;0.82;;;0.43;;
48034;SDS011;33812;46.480;6.834;2022-09-27T14:07:02;1.58;;;0.57;;
48034;SDS011;33812;46.480;6.834;2022-09-27T14:11:11;1.45;;;0.40;;
48034;SDS011;33812;46.480;6.834;2022-09-27T14:15:16;3.42;;;0.50;;
48034;SDS011;33812;46.480;6.834;2022-09-27T14:19:21;0.77;;;0.43;;
48034;SDS011;33812;46.480;6.834;2022-09-27T14:23:25;0.73;;;0.30;;
48034;SDS011;33812;46.480;6.834;2022-09-27T14:27:29;0.80;;;0.30;;
48034;SDS011;33812;46.480;6.834;2022-09-27T14:31:34;0.68;;;0.40;;
48034;SDS011;33812;46.480;6.834;2022-09-27T14:35:37;1.15;;;0.40;;
48034;SDS011;33812;46.480;6.834;2022-09-27T14:40:06;0.77;;;0.40;;
48034;SDS011;33812;46.480;6.834;2022-09-27T14:44:20;0.30;;;0.30;;
48034;SDS011;33812;46.480;6.834;2022-09-27T14:48:27;1.92;;;0.47;;
48034;SDS011;33812;46.480;6.834;2022-09-27T14:52:32;1.13;;;0.40;;
48034;SDS011;33812;46.480;6.834;2022-09-27T14:56:35;1.25;;;0.60;;
48034;SDS011;33812;46.480;6.834;2022-09-27T15:00:44;1.83;;;0.50;;
48034;SDS011;33812;46.480;6.834;2022-09-27T15:04:47;0.85;;;0.30;;
48034;SDS011;33812;46.480;6.834;2022-09-27T15:08:50;0.63;;;0.30;;
48034;SDS011;33812;46.480;6.834;2022-09-27T15:12:54;1.30;;;0.50;;
48034;SDS011;33812;46.480;6.834;2022-09-27T15:17:00;0.73;;;0.30;;
48034;SDS011;33812;46.480;6.834;2022-09-27T15:21:05;2.83;;;0.70;;
48034;SDS011;33812;46.480;6.834;2022-09-27T15:25:16;3.45;;;0.43;;
48034;SDS011;33812;46.480;6.834;2022-09-27T15:29:20;3.35;;;0.70;;
48034;SDS011;33812;46.480;6.834;2022-09-27T15:33:26;5.10;;;0.60;;
48034;SDS011;33812;46.480;6.834;2022-09-27T15:37:33;8.20;;;0.47;;
48034;SDS011;33812;46.480;6.834;2022-09-27T15:41:58;1.70;;;0.40;;
48034;SDS011;33812;46.480;6.834;2022-09-27T15:46:02;1.15;;;0.63;;
48034;SDS011;33812;46.480;6.834;2022-09-27T15:54:36;1.00;;;0.30;;
48034;SDS011;33812;46.480;6.834;2022-09-27T15:58:38;4.97;;;0.45;;
48034;SDS011;33812;46.480;6.834;2022-09-27T16:02:40;2.00;;;0.43;;
48034;SDS011;33812;46.480;6.834;2022-09-27T16:06:42;4.78;;;0.55;;
48034;SDS011;33812;46.480;6.834;2022-09-27T16:10:47;3.42;;;0.40;;
48034;SDS011;33812;46.480;6.834;2022-09-27T16:14:51;5.07;;;0.47;;
48034;SDS011;33812;46.480;6.834;2022-09-27T16:18:52;4.00;;;0.70;;
48034;SDS011;33812;46.480;6.834;2022-09-27T16:22:56;2.70;;;1.08;;
48034;SDS011;33812;46.480;6.834;2022-09-27T16:26:59;1.20;;;0.40;;
48034;SDS011;33812;46.480;6.834;2022-09-27T16:31:03;2.37;;;0.50;;
48034;SDS011;33812;46.480;6.834;2022-09-27T16:35:06;3.93;;;0.37;;
48034;SDS011;33812;46.480;6.834;2022-09-27T16:39:09;0.75;;;0.40;;
48034;SDS011;33812;46.480;6.834;2022-09-27T16:43:14;0.77;;;0.40;;
48034;SDS011;33812;46.480;6.834;2022-09-27T16:47:16;2.20;;;0.40;;
48034;SDS011;33812;46.480;6.834;2022-09-27T16:51:18;3.88;;;0.47;;
48034;SDS011;33812;46.480;6.834;2022-09-27T16:55:38;0.60;;;0.30;;
48034;SDS011;33812;46.480;6.834;2022-09-27T16:59:41;1.35;;;0.30;;
48034;SDS011;33812;46.480;6.834;2022-09-27T17:03:47;3.08;;;0.50;;
48034;SDS011;33812;46.480;6.834;2022-09-27T17:07:49;0.98;;;0.40;;
48034;SDS011;33812;46.480;6.834;2022-09-27T17:11:52;2.55;;;0.45;;
48034;SDS011;33812;46.480;6.834;2022-09-27T17:15:55;0.40;;;0.30;;
48034;SDS011;33812;46.480;6.834;2022-09-27T17:19:57;0.93;;;0.40;;
48034;SDS011;33812;46.480;6.834;2022-09-27T17:23:59;3.05;;;0.52;;
48034;SDS011;33812;46.480;6.834;2022-09-27T17:28:01;1.25;;;0.52;;
48034;SDS011;33812;46.480;6.834;2022-09-27T17:32:04;1.60;;;0.68;;
48034;SDS011;33812;46.480;6.834;2022-09-27T17:36:08;1.80;;;0.70;;
48034;SDS011;33812;46.480;6.834;2022-09-27T17:40:11;3.70;;;0.90;;
48034;SDS011;33812;46.480;6.834;2022-09-27T17:44:15;5.65;;;1.00;;
48034;SDS011;33812;46.480;6.834;2022-09-27T17:52:38;5.10;;;0.60;;
48034;SDS011;33812;46.480;6.834;2022-09-27T17:56:41;7.05;;;0.52;;
48034;SDS011;33812;46.480;6.834;2022-09-27T18:00:43;4.40;;;0.73;;
48034;SDS011;33812;46.480;6.834;2022-09-27T18:04:47;6.65;;;0.70;;
48034;SDS011;33812;46.480;6.834;2022-09-27T18:08:49;3.85;;;0.60;;
48034;SDS011;33812;46.480;6.834;2022-09-27T18:12:51;2.13;;;0.40;;
48034;SDS011;33812;46.480;6.834;2022-09-27T18:16:52;4.05;;;0.50;;
48034;SDS011;33812;46.480;6.834;2022-09-27T18:21:00;1.45;;;0.40;;
48034;SDS011;33812;46.480;6.834;2022-09-27T18:25:03;1.88;;;0.43;;
48034;SDS011;33812;46.480;6.834;2022-09-27T18:29:05;2.47;;;0.80;;
48034;SDS011;33812;46.480;6.834;2022-09-27T18:33:09;3.65;;;0.57;;
48034;SDS011;33812;46.480;6.834;2022-09-27T18:37:13;2.20;;;0.32;;
48034;SDS011;33812;46.480;6.834;2022-09-27T18:41:16;2.05;;;1.00;;
48034;SDS011;33812;46.480;6.834;2022-09-27T18:45:19;3.97;;;1.17;;
48034;SDS011;33812;46.480;6.834;2022-09-27T18:49:20;4.30;;;0.60;;
48034;SDS011;33812;46.480;6.834;2022-09-27T18:53:23;7.50;;;1.10;;
48034;SDS011;33812;46.480;6.834;2022-09-27T18:57:25;10.68;;;1.25;;
48034;SDS011;33812;46.480;6.834;2022-09-27T19:01:27;5.57;;;0.70;;
48034;SDS011;33812;46.480;6.834;2022-09-27T19:05:30;6.50;;;0.55;;
48034;SDS011;33812;46.480;6.834;2022-09-27T19:09:34;9.40;;;1.75;;
48034;SDS011;33812;46.480;6.834;2022-09-27T19:13:36;13.33;;;0.60;;
48034;SDS011;33812;46.480;6.834;2022-09-27T19:17:38;10.00;;;0.90;;
48034;SDS011;33812;46.480;6.834;2022-09-27T19:21:40;1.58;;;0.60;;
48034;SDS011;33812;46.480;6.834;2022-09-27T19:25:43;6.47;;;1.00;;
48034;SDS011;33812;46.480;6.834;2022-09-27T19:29:45;5.50;;;1.40;;
48034;SDS011;33812;46.480;6.834;2022-09-27T19:33:47;10.15;;;1.08;;
48034;SDS011;33812;46.480;6.834;2022-09-27T19:37:49;20.58;;;1.40;;
48034;SDS011;33812;46.480;6.834;2022-09-27T19:41:52;10.35;;;1.73;;
48034;SDS011;33812;46.480;6.834;2022-09-27T19:45:55;6.35;;;1.60;;
48034;SDS011;33812;46.480;6.834;2022-09-27T19:50:03;9.90;;;1.77;;
48034;SDS011;33812;46.480;6.834;2022-09-27T19:54:05;14.45;;;1.58;;
48034;SDS011;33812;46.480;6.834;2022-09-27T19:58:08;17.08;;;1.73;;
48034;SDS011;33812;46.480;6.834;2022-09-27T20:02:10;15.98;;;3.13;;
48034;SDS011;33812;46.480;6.834;2022-09-27T20:06:12;19.88;;;2.20;;
48034;SDS011;33812;46.480;6.834;2022-09-27T20:10:15;14.00;;;2.13;;
48034;SDS011;33812;46.480;6.834;2022-09-27T20:14:18;18.27;;;1.98;;
48034;SDS011;33812;46.480;6.834;2022-09-27T20:18:19;5.68;;;1.27;;
48034;SDS011;33812;46.480;6.834;2022-09-27T20:22:22;8.02;;;1.10;;
48034;SDS011;33812;46.480;6.834;2022-09-27T20:26:25;7.95;;;1.83;;
48034;SDS011;33812;46.480;6.834;2022-09-27T20:30:29;6.93;;;1.33;;
48034;SDS011;33812;46.480;6.834;2022-09-27T20:34:31;11.63;;;1.38;;
48034;SDS011;33812;46.480;6.834;2022-09-27T20:38:33;7.68;;;1.00;;
48034;SDS011;33812;46.480;6.834;2022-09-27T20:42:35;4.55;;;0.90;;
48034;SDS011;33812;46.480;6.834;2022-09-27T20:46:38;6.45;;;1.38;;
48034;SDS011;33812;46.480;6.834;2022-09-27T20:50:43;6.67;;;1.40;;
48034;SDS011;33812;46.480;6.834;2022-09-27T20:54:45;7.30;;;1.50;;
48034;SDS011;33812;46.480;6.834;2022-09-27T20:58:47;11.73;;;1.10;;
48034;SDS011;33812;46.480;6.834;2022-09-27T21:02:51;8.20;;;1.35;;
48034;SDS011;33812;46.480;6.834;2022-09-27T21:06:53;6.72;;;1.15;;
48034;SDS011;33812;46.480;6.834;2022-09-27T21:11:01;3.65;;;1.35;;
48034;SDS011;33812;46.480;6.834;2022-09-27T21:15:04;3.67;;;0.80;;
48034;SDS011;33812;46.480;6.834;2022-09-27T21:19:09;3.45;;;0.75;;
48034;SDS011;33812;46.480;6.834;2022-09-27T21:23:10;5.18;;;0.93;;
48034;SDS011;33812;46.480;6.834;2022-09-27T21:27:12;6.50;;;1.10;;
48034;SDS011;33812;46.480;6.834;2022-09-27T21:31:14;3.30;;;0.73;;
48034;SDS011;33812;46.480;6.834;2022-09-27T21:35:19;2.97;;;0.70;;
48034;SDS011;33812;46.480;6.834;2022-09-27T21:39:20;3.60;;;0.75;;
48034;SDS011;33812;46.480;6.834;2022-09-27T21:43:25;3.50;;;1.25;;
48034;SDS011;33812;46.480;6.834;2022-09-27T21:47:28;3.53;;;0.68;;
48034;SDS011;33812;46.480;6.834;2022-09-27T21:51:32;2.55;;;1.05;;
48034;SDS011;33812;46.480;6.834;2022-09-27T21:55:36;2.47;;;0.55;;
48034;SDS011;33812;46.480;6.834;2022-09-27T21:59:38;4.47;;;0.93;;
48034;SDS011;33812;46.480;6.834;2022-09-27T22:03:41;2.47;;;0.55;;
48034;SDS011;33812;46.480;6.834;2022-09-27T22:07:44;2.30;;;0.65;;
48034;SDS011;33812;46.480;6.834;2022-09-27T22:11:46;5.18;;;1.15;;
48034;SDS011;33812;46.480;6.834;2022-09-27T22:15:48;7.13;;;1.45;;
48034;SDS011;33812;46.480;6.834;2022-09-27T22:19:51;2.97;;;0.40;;
48034;SDS011;33812;46.480;6.834;2022-09-27T22:23:54;0.90;;;0.40;;
48034;SDS011;33812;46.480;6.834;2022-09-27T22:27:59;2.20;;;0.60;;
48034;SDS011;33812;46.480;6.834;2022-09-27T22:32:01;4.03;;;0.77;;
48034;SDS011;33812;46.480;6.834;2022-09-27T22:36:04;4.57;;;0.85;;
48034;SDS011;33812;46.480;6.834;2022-09-27T22:40:07;2.10;;;0.68;;
48034;SDS011;33812;46.480;6.834;2022-09-27T22:44:10;0.50;;;0.30;;
48034;SDS011;33812;46.480;6.834;2022-09-27T22:48:11;2.33;;;0.50;;
48034;SDS011;33812;46.480;6.834;2022-09-27T22:52:13;2.00;;;0.52;;
48034;SDS011;33812;46.480;6.834;2022-09-27T22:56:17;4.82;;;0.50;;
48034;SDS011;33812;46.480;6.834;2022-09-27T23:00:20;0.85;;;0.40;;
48034;SDS011;33812;46.480;6.834;2022-09-27T23:04:22;1.80;;;0.57;;
48034;SDS011;33812;46.480;6.834;2022-09-27T23:08:25;1.35;;;0.40;;
48034;SDS011;33812;46.480;6.834;2022-09-27T23:12:28;1.13;;;0.40;;
48034;SDS011;33812;46.480;6.834;2022-09-27T23:16:31;1.35;;;0.68;;
48034;SDS011;33812;46.480;6.834;2022-09-27T23:20:33;1.85;;;0.30;;
48034;SDS011;33812;46.480;6.834;2022-09-27T23:24:35;0.45;;;0.30;;
48034;SDS011;33812;46.480;6.834;2022-09-27T23:28:38;5.63;;;0.70;;
48034;SDS011;33812;46.480;6.834;2022-09-27T23:32:40;1.45;;;0.52;;
48034;SDS011;33812;46.480;6.834;2022-09-27T23:36:43;1.83;;;0.30;;
48034;SDS011;33812;46.480;6.834;2022-09-27T23:40:45;4.40;;;0.40;;
48034;SDS011;33812;46.480;6.834;2022-09-27T23:44:48;7.85;;;0.68;;
48034;SDS011;33812;46.480;6.834;2022-09-27T23:48:51;3.85;;;0.45;;
48034;SDS011;33812;46.480;6.834;2022-09-27T23:52:53;1.80;;;0.73;;
48034;SDS011;33812;46.480;6.834;2022-09-27T23:56:55;0.95;;;0.30;;
